Time;durP1;ratioP1;P1;durP2;ratioP2;P2;SDS_P1;SDS_P2;PMS_P1;PMS_P2;Temp;Humidity;BMP_temperature;BMP_pressure;BME280_temperature;BME280_humidity;BME280_pressure;Samples;Min_cycle;Max_cycle;Signal;HPM_P1;HPM_P2
2023/03/11 00:00:25;;;;;;;7.13;4.32;;;;;;;-0.66;68.23;99541.19;5012745;28;19975;-48
2023/03/11 00:02:54;;;;;;;5.80;2.25;;;;;;;-0.63;68.14;99545.53;5012297;28;20045;-54
2023/03/11 00:05:24;;;;;;;5.95;2.75;;;;;;;-0.64;68.49;99543.78;5022120;28;20042;-50
2023/03/11 00:07:50;;;;;;;11.48;4.97;;;;;;;-0.63;68.37;99548.06;5024110;28;20157;-52
2023/03/11 00:10:20;;;;;;;11.30;5.50;;;;;;;-0.62;67.94;99548.91;5024831;28;20103;-52
2023/03/11 00:12:49;;;;;;;10.23;4.88;;;;;;;-0.63;68.45;99535.34;5030073;28;20069;-50
2023/03/11 00:15:17;;;;;;;9.70;3.72;;;;;;;-0.62;68.23;99528.56;5024645;28;20051;-49
2023/03/11 00:17:43;;;;;;;10.68;6.20;;;;;;;-0.61;68.34;99533.69;5026051;28;20556;-53
2023/03/11 00:20:29;;;;;;;9.23;3.58;;;;;;;-0.62;68.04;99529.44;5026248;28;20053;-47
2023/03/11 00:22:56;;;;;;;6.78;2.72;;;;;;;-0.60;68.10;99534.56;5021827;28;20077;-56
2023/03/11 00:25:27;;;;;;;11.70;4.55;;;;;;;-0.61;68.49;99531.16;5040073;28;20519;-53
2023/03/11 00:27:54;;;;;;;9.00;4.20;;;;;;;-0.62;68.15;99547.25;5023719;28;20077;-50
2023/03/11 00:30:22;;;;;;;8.68;4.35;;;;;;;-0.63;68.00;99539.56;5029112;28;20084;-50
2023/03/11 00:32:51;;;;;;;12.20;6.47;;;;;;;-0.64;68.63;99543.78;5026005;28;20064;-50
2023/03/11 00:35:22;;;;;;;15.15;6.57;;;;;;;-0.66;68.04;99542.88;5024647;28;20049;-49
2023/03/11 00:37:52;;;;;;;9.88;5.95;;;;;;;-0.67;68.07;99543.69;5016040;28;20161;-53
2023/03/11 00:40:21;;;;;;;11.95;7.28;;;;;;;-0.71;68.39;99535.06;5016491;28;20505;-52
2023/03/11 00:42:47;;;;;;;13.52;7.22;;;;;;;-0.73;68.23;99533.28;5030472;28;20150;-54
2023/03/11 00:45:14;;;;;;;12.98;7.97;;;;;;;-0.76;68.17;99538.25;5016905;28;20126;-53
2023/03/11 00:47:41;;;;;;;9.68;7.15;;;;;;;-0.78;68.34;99536.53;5015106;28;20068;-52
2023/03/11 00:50:11;;;;;;;9.70;6.80;;;;;;;-0.78;68.42;99540.75;5016775;28;20107;-51
2023/03/11 00:52:37;;;;;;;8.50;5.78;;;;;;;-0.79;68.58;99523.75;5015425;28;20045;-53
2023/03/11 00:55:05;;;;;;;10.30;4.75;;;;;;;-0.80;68.50;99532.22;5020079;28;20045;-51
2023/03/11 00:57:31;;;;;;;6.97;3.42;;;;;;;-0.80;68.82;99538.19;5032890;28;20053;-53
2023/03/11 00:59:58;;;;;;;7.38;3.92;;;;;;;-0.81;68.93;99536.41;5019871;28;20090;-55
2023/03/11 01:02:25;;;;;;;7.55;2.83;;;;;;;-0.81;68.65;99530.50;5019754;28;20053;-54
2023/03/11 01:04:54;;;;;;;5.13;2.45;;;;;;;-0.83;68.48;99527.88;5021559;28;20042;-56
2023/03/11 01:07:22;;;;;;;6.70;4.18;;;;;;;-0.83;68.81;99537.19;5022320;28;20049;-51
2023/03/11 01:09:48;;;;;;;6.55;3.67;;;;;;;-0.84;68.45;99536.31;5021376;28;20070;-50
2023/03/11 01:12:15;;;;;;;8.13;4.40;;;;;;;-0.85;69.14;99539.66;5030483;28;20045;-51
2023/03/11 01:14:42;;;;;;;7.85;2.97;;;;;;;-0.86;68.59;99539.63;5026359;28;20049;-52
2023/03/11 01:17:09;;;;;;;7.93;5.28;;;;;;;-0.86;68.73;99540.50;5032525;28;20045;-49
2023/03/11 01:19:35;;;;;;;11.85;5.40;;;;;;;-0.87;68.54;99530.25;5027931;28;20049;-51
2023/03/11 01:22:02;;;;;;;7.22;3.75;;;;;;;-0.87;68.22;99531.13;5023471;28;20595;-52
2023/03/11 01:24:28;;;;;;;6.95;4.00;;;;;;;-0.88;68.48;99534.47;5024970;28;20061;-55
2023/03/11 01:26:55;;;;;;;6.93;3.38;;;;;;;-0.88;68.77;99534.47;5022040;28;20131;-55
2023/03/11 01:29:21;;;;;;;5.57;3.22;;;;;;;-0.88;68.48;99536.16;5025060;28;20108;-55
2023/03/11 01:31:48;;;;;;;11.75;2.80;;;;;;;-0.87;68.66;99540.44;5023548;28;20600;-55
2023/03/11 01:34:15;;;;;;;4.32;2.85;;;;;;;-0.88;68.50;99539.56;5025897;28;20138;-54
2023/03/11 01:36:41;;;;;;;4.65;3.25;;;;;;;-0.88;68.48;99533.63;5027449;28;20045;-53
2023/03/11 01:39:08;;;;;;;6.63;2.25;;;;;;;-0.88;68.43;99526.00;5017839;28;20626;-54
2023/03/11 01:41:34;;;;;;;5.07;3.40;;;;;;;-0.89;68.71;99522.56;5021585;28;20087;-54
2023/03/11 01:44:03;;;;;;;10.32;5.05;;;;;;;-0.89;68.41;99526.78;5026228;28;20073;-51
2023/03/11 01:46:36;;;;;;;8.77;3.55;;;;;;;-0.89;68.06;99522.56;5021973;28;20045;-53
2023/03/11 01:49:04;;;;;;;7.93;3.15;;;;;;;-0.90;68.26;99531.03;5017233;28;20053;-54
2023/03/11 01:51:36;;;;;;;5.00;3.72;;;;;;;-0.91;68.16;99534.38;5017929;28;20045;-55
2023/03/11 01:54:09;;;;;;;4.90;2.40;;;;;;;-0.92;68.41;99525.00;5024528;28;20096;-53
2023/03/11 01:56:38;;;;;;;4.68;2.25;;;;;;;-0.94;68.37;99524.09;5020328;28;20080;-50
2023/03/11 01:59:07;;;;;;;6.50;3.30;;;;;;;-0.96;68.56;99525.72;5021244;28;20412;-51
2023/03/11 02:01:37;;;;;;;6.57;3.78;;;;;;;-0.98;68.74;99522.25;5025549;28;20129;-53
2023/03/11 02:04:04;;;;;;;8.60;3.97;;;;;;;-1.01;68.36;99515.41;5022919;28;20049;-54
2023/03/11 02:06:31;;;;;;;6.68;3.92;;;;;;;-1.02;68.35;99525.50;5020268;28;20128;-54
2023/03/11 02:08:59;;;;;;;5.55;4.63;;;;;;;-1.05;68.57;99516.94;5026051;28;20139;-57
2023/03/11 02:11:29;;;;;;;3.40;1.58;;;;;;;-1.08;68.45;99509.22;5024570;28;20095;-53
2023/03/11 02:14:01;;;;;;;5.80;1.65;;;;;;;-1.11;68.36;99500.63;5025480;28;20115;-52
2023/03/11 02:16:27;;;;;;;5.28;2.70;;;;;;;-1.15;68.24;99499.63;5039673;28;20524;-50
2023/03/11 02:18:59;;;;;;;4.28;1.77;;;;;;;-1.18;68.49;99502.09;5022145;28;20590;-50
2023/03/11 02:21:29;;;;;;;9.70;2.88;;;;;;;-1.21;68.43;99499.44;5026084;28;20041;-50
2023/03/11 02:24:06;;;;;;;5.38;3.03;;;;;;;-1.23;68.47;99490.88;5026590;28;20061;-51
2023/03/11 02:26:42;;;;;;;5.55;2.55;;;;;;;-1.26;68.36;99504.34;5021809;28;20046;-55
2023/03/11 02:29:10;;;;;;;4.47;2.67;;;;;;;-1.28;68.42;99500.00;5022815;28;20049;-53
2023/03/11 02:31:38;;;;;;;4.00;3.22;;;;;;;-1.32;68.15;99496.50;5022847;28;20045;-52
2023/03/11 02:34:17;;;;;;;4.07;2.90;;;;;;;-1.34;68.27;99487.94;5040845;28;20111;-52
2023/03/11 02:36:44;;;;;;;9.63;3.42;;;;;;;-1.37;68.57;99487.81;5026018;28;20069;-51
2023/03/11 02:39:11;;;;;;;3.85;3.10;;;;;;;-1.41;68.62;99489.41;5020217;28;20180;-51
2023/03/11 02:41:41;;;;;;;6.40;3.67;;;;;;;-1.45;68.45;99493.50;5024959;28;20550;-51
2023/03/11 02:44:10;;;;;;;7.47;4.70;;;;;;;-1.48;68.78;99490.00;5016455;28;20061;-54
2023/03/11 02:46:40;;;;;;;7.07;3.85;;;;;;;-1.53;68.83;99494.03;5019441;28;20095;-48
2023/03/11 02:49:08;;;;;;;6.82;4.45;;;;;;;-1.57;68.29;99491.38;5020078;28;20041;-52
2023/03/11 02:51:34;;;;;;;8.77;3.70;;;;;;;-1.60;68.49;99487.84;5021297;28;20092;-52
2023/03/11 02:54:04;;;;;;;5.05;2.28;;;;;;;-1.64;68.38;99481.78;5024101;28;20085;-52
2023/03/11 02:56:31;;;;;;;8.57;3.38;;;;;;;-1.67;68.97;99479.13;5020969;28;20124;-53
2023/03/11 02:58:57;;;;;;;5.47;2.90;;;;;;;-1.68;68.87;99479.94;5022675;28;20103;-54
2023/03/11 03:01:24;;;;;;;6.30;2.85;;;;;;;-1.69;68.74;99478.22;5023980;28;20099;-53
2023/03/11 03:03:50;;;;;;;4.10;2.80;;;;;;;-1.68;68.60;99474.88;5024415;28;20053;-49
2023/03/11 03:06:17;;;;;;;5.32;3.30;;;;;;;-1.69;68.78;99475.69;5020490;28;20128;-53
2023/03/11 03:08:44;;;;;;;9.50;3.60;;;;;;;-1.70;69.25;99476.47;5024166;28;20119;-53
2023/03/11 03:11:11;;;;;;;6.40;2.72;;;;;;;-1.71;68.97;99477.28;5022076;28;20075;-54
2023/03/11 03:13:37;;;;;;;4.00;2.55;;;;;;;-1.73;68.84;99477.22;5024388;28;20505;-51
2023/03/11 03:16:04;;;;;;;3.90;2.65;;;;;;;-1.74;68.79;99485.66;5021025;28;20057;-51
2023/03/11 03:18:31;;;;;;;3.25;2.70;;;;;;;-1.76;68.94;99478.81;5020395;28;20145;-51
2023/03/11 03:20:57;;;;;;;6.05;2.60;;;;;;;-1.78;69.21;99475.31;5021608;28;20770;-50
2023/03/11 03:23:24;;;;;;;6.78;3.03;;;;;;;-1.82;69.17;99475.19;5023195;28;20073;-54
2023/03/11 03:25:50;;;;;;;11.10;3.28;;;;;;;-1.83;69.58;99473.47;5021166;28;20116;-50
2023/03/11 03:28:18;;;;;;;4.78;2.83;;;;;;;-1.84;68.87;99471.75;5024888;28;20124;-50
2023/03/11 03:30:44;;;;;;;4.03;3.20;;;;;;;-1.84;68.75;99474.28;5017782;28;20130;-51
2023/03/11 03:33:11;;;;;;;2.45;1.75;;;;;;;-1.81;69.64;99479.50;5019751;28;20132;-52
2023/03/11 03:35:41;;;;;;;6.28;2.20;;;;;;;-1.81;69.31;99476.06;5026453;28;20046;-52
2023/03/11 03:38:08;;;;;;;2.63;1.42;;;;;;;-1.78;69.20;99488.91;5015053;28;20092;-52
2023/03/11 03:40:35;;;;;;;8.50;1.70;;;;;;;-1.74;69.10;99492.41;5014832;28;20128;-50
2023/03/11 03:43:02;;;;;;;4.03;2.45;;;;;;;-1.73;68.86;99494.13;5019880;28;20053;-51
2023/03/11 03:45:29;;;;;;;6.78;2.95;;;;;;;-1.70;69.19;99499.31;5019469;28;20077;-51
2023/03/11 03:47:55;;;;;;;3.03;2.15;;;;;;;-1.68;69.19;99492.66;5018729;28;20471;-53
2023/03/11 03:50:23;;;;;;;4.65;2.00;;;;;;;-1.65;68.75;99502.94;5020238;28;20041;-55
2023/03/11 03:52:49;;;;;;;3.05;2.10;;;;;;;-1.62;69.19;99492.00;5015346;28;20049;-51
2023/03/11 03:55:16;;;;;;;3.38;2.00;;;;;;;-1.59;68.60;99492.97;5018804;28;20087;-52
2023/03/11 03:57:42;;;;;;;1.88;1.08;;;;;;;-1.55;69.02;99491.44;5016581;28;20583;-50
2023/03/11 04:00:10;;;;;;;4.85;2.22;;;;;;;-1.52;68.69;99493.22;5019439;28;20077;-49
2023/03/11 04:02:36;;;;;;;6.63;2.85;;;;;;;-1.51;68.57;99494.94;5021472;28;20127;-54
2023/03/11 04:05:03;;;;;;;4.97;2.53;;;;;;;-1.48;69.14;99500.16;5025947;28;20045;-51
2023/03/11 04:07:33;;;;;;;4.80;1.63;;;;;;;-1.47;69.38;99494.25;5024804;28;20652;-53
2023/03/11 04:09:59;;;;;;;6.47;2.28;;;;;;;-1.46;69.03;99494.31;5023213;28;20073;-52
2023/03/11 04:12:26;;;;;;;2.65;2.00;;;;;;;-1.43;69.09;99493.56;5023811;28;20104;-50
2023/03/11 04:14:53;;;;;;;3.05;2.53;;;;;;;-1.40;69.33;99506.38;5022684;28;20505;-52
2023/03/11 04:17:19;;;;;;;2.28;2.08;;;;;;;-1.37;69.12;99503.94;5022437;28;20049;-52
2023/03/11 04:19:46;;;;;;;3.22;2.10;;;;;;;-1.36;69.25;99500.59;5022845;28;20132;-52
2023/03/11 04:22:13;;;;;;;4.18;2.63;;;;;;;-1.34;69.24;99504.06;5021679;28;20555;-49
2023/03/11 04:24:39;;;;;;;3.80;2.50;;;;;;;-1.32;69.05;99502.44;5017036;28;20111;-51
2023/03/11 04:27:06;;;;;;;7.00;1.30;;;;;;;-1.28;68.95;99500.00;5024715;28;20069;-50
2023/03/11 04:29:32;;;;;;;9.88;1.92;;;;;;;-1.25;69.25;99498.44;5023112;28;20077;-53
2023/03/11 04:31:59;;;;;;;3.42;1.67;;;;;;;-1.22;68.54;99506.16;5017850;28;20413;-51
2023/03/11 04:34:26;;;;;;;3.50;1.77;;;;;;;-1.21;68.71;99505.34;5017942;28;20456;-52
2023/03/11 04:36:53;;;;;;;2.92;2.35;;;;;;;-1.18;68.63;99499.53;5014946;28;20053;-51
2023/03/11 04:39:20;;;;;;;3.88;1.73;;;;;;;-1.17;69.29;99502.13;5018784;28;20080;-55
2023/03/11 04:41:46;;;;;;;2.88;1.08;;;;;;;-1.14;68.85;99505.59;5019718;28;20080;-54
2023/03/11 04:44:13;;;;;;;1.92;1.83;;;;;;;-1.13;69.04;99508.19;5018965;28;21037;-56
2023/03/11 04:46:39;;;;;;;4.70;2.13;;;;;;;-1.10;68.96;99503.22;5018577;28;20442;-52
2023/03/11 04:49:07;;;;;;;1.67;0.75;;;;;;;-1.09;68.46;99499.84;5018504;28;20088;-49
2023/03/11 04:51:33;;;;;;;1.92;0.50;;;;;;;-1.07;68.73;99518.59;5018500;28;20046;-51
2023/03/11 04:54:00;;;;;;;2.95;1.95;;;;;;;-1.06;68.90;99517.78;5019370;28;20106;-52
2023/03/11 04:56:26;;;;;;;2.55;2.03;;;;;;;-1.03;69.32;99524.63;5015750;28;20073;-47
2023/03/11 04:58:53;;;;;;;3.50;2.40;;;;;;;-1.04;68.80;99522.91;5017071;28;20087;-53
2023/03/11 05:01:19;;;;;;;4.82;1.42;;;;;;;-1.04;69.30;99523.75;5019118;28;21235;-51
2023/03/11 05:03:46;;;;;;;2.50;2.22;;;;;;;-1.04;68.55;99528.84;5014767;28;20575;-55
2023/03/11 05:06:13;;;;;;;2.75;1.88;;;;;;;-1.04;68.89;99528.84;5019769;28;20122;-53
2023/03/11 05:08:39;;;;;;;2.63;2.22;;;;;;;-1.02;68.88;99535.69;5021346;28;20528;-53
2023/03/11 05:11:07;;;;;;;3.38;2.05;;;;;;;-1.04;69.13;99531.38;5016075;28;20141;-51
2023/03/11 05:13:34;;;;;;;4.95;2.03;;;;;;;-1.04;69.21;99536.47;5019845;28;20042;-51
2023/03/11 05:16:00;;;;;;;2.80;2.20;;;;;;;-1.05;68.94;99534.75;5021234;28;20417;-50
2023/03/11 05:18:28;;;;;;;2.60;2.03;;;;;;;-1.05;68.93;99539.81;5024230;28;20460;-55
2023/03/11 05:20:55;;;;;;;3.72;2.10;;;;;;;-1.05;69.01;99542.38;5019257;28;20092;-54
2023/03/11 05:23:21;;;;;;;2.13;1.58;;;;;;;-1.04;69.27;99539.00;5016922;28;20564;-50
2023/03/11 05:25:48;;;;;;;3.80;2.45;;;;;;;-1.01;69.21;99548.44;5020339;28;20049;-54
2023/03/11 05:28:15;;;;;;;2.92;2.10;;;;;;;-1.01;68.73;99545.91;5021270;28;20053;-56
2023/03/11 05:30:41;;;;;;;3.05;2.72;;;;;;;-1.00;68.76;99544.22;5018376;28;20509;-52
2023/03/11 05:33:08;;;;;;;4.30;1.42;;;;;;;-1.00;69.05;99536.59;5020244;28;20073;-52
2023/03/11 05:35:34;;;;;;;6.22;0.68;;;;;;;-0.99;69.29;99539.19;5022632;28;20073;-55
2023/03/11 05:38:01;;;;;;;4.75;2.42;;;;;;;-0.97;69.13;99536.69;5014880;28;20060;-50
2023/03/11 05:40:28;;;;;;;6.35;2.63;;;;;;;-0.96;69.29;99530.78;5018425;28;20081;-51
2023/03/11 05:42:54;;;;;;;5.30;1.20;;;;;;;-0.95;69.07;99542.72;5018840;28;20140;-52
2023/03/11 05:45:21;;;;;;;3.00;1.20;;;;;;;-0.93;69.13;99551.25;5016234;28;20089;-50
2023/03/11 05:47:47;;;;;;;3.75;2.78;;;;;;;-0.92;69.40;99547.88;5000429;28;20133;-51
2023/03/11 05:50:14;;;;;;;7.97;3.63;;;;;;;-0.91;68.82;99544.56;5011217;28;20132;-52
2023/03/11 05:52:40;;;;;;;4.32;1.15;;;;;;;-0.90;69.08;99536.13;5017504;28;21942;-54
2023/03/11 05:55:10;;;;;;;6.47;3.63;;;;;;;-0.88;69.16;99534.47;5022106;28;20096;-51
2023/03/11 05:57:38;;;;;;;3.97;1.33;;;;;;;-0.87;69.27;99545.53;5018358;28;20142;-52
2023/03/11 06:00:11;;;;;;;2.78;1.73;;;;;;;-0.86;69.59;99549.78;5023753;28;20127;-53
2023/03/11 06:02:39;;;;;;;4.43;2.13;;;;;;;-0.85;69.14;99557.47;5020525;28;20053;-55
2023/03/11 06:05:07;;;;;;;3.58;2.40;;;;;;;-0.83;69.23;99567.69;5020841;28;20136;-52
2023/03/11 06:07:34;;;;;;;4.55;2.67;;;;;;;-0.82;69.49;99577.94;5020019;28;20049;-49
2023/03/11 06:10:02;;;;;;;5.00;2.17;;;;;;;-0.83;69.58;99573.66;5039974;28;20053;-53
2023/03/11 06:12:29;;;;;;;3.33;2.42;;;;;;;-0.82;69.12;99572.84;5020731;28;20057;-54
2023/03/11 06:14:55;;;;;;;4.07;2.95;;;;;;;-0.81;69.17;99583.91;5021977;28;20069;-48
2023/03/11 06:17:22;;;;;;;5.28;2.80;;;;;;;-0.79;69.44;99594.97;5023788;28;20131;-53
2023/03/11 06:19:48;;;;;;;3.20;1.88;;;;;;;-0.79;69.33;99574.63;5022191;28;20048;-52
2023/03/11 06:22:15;;;;;;;4.75;2.78;;;;;;;-0.76;69.40;99589.13;5018757;28;20083;-51
2023/03/11 06:24:42;;;;;;;2.90;2.40;;;;;;;-0.76;69.33;99595.09;5025305;28;20128;-51
2023/03/11 06:27:10;;;;;;;3.60;2.28;;;;;;;-0.75;69.51;99588.34;5021463;28;20080;-54
2023/03/11 06:29:36;;;;;;;6.32;2.50;;;;;;;-0.75;69.27;99589.19;5023150;28;20124;-54
2023/03/11 06:32:03;;;;;;;4.22;3.00;;;;;;;-0.74;69.32;99598.56;5018148;28;20099;-54
2023/03/11 06:34:30;;;;;;;3.60;2.38;;;;;;;-0.73;69.54;99604.50;5024227;28;20050;-53
2023/03/11 06:36:58;;;;;;;6.20;3.20;;;;;;;-0.72;69.36;99601.13;5022975;28;20073;-54
2023/03/11 06:39:25;;;;;;;4.22;2.78;;;;;;;-0.72;69.65;99606.22;5020417;28;20053;-53
2023/03/11 06:41:51;;;;;;;5.55;1.55;;;;;;;-0.69;69.56;99606.34;5024056;28;20236;-51
2023/03/11 06:44:18;;;;;;;5.47;2.75;;;;;;;-0.67;69.71;99609.81;5022870;28;20079;-54
2023/03/11 06:46:44;;;;;;;7.40;3.25;;;;;;;-0.66;69.17;99596.28;5020768;28;20054;-54
2023/03/11 06:49:11;;;;;;;7.43;3.40;;;;;;;-0.66;69.54;99586.97;5016021;28;20076;-52
2023/03/11 06:51:37;;;;;;;3.92;2.08;;;;;;;-0.63;69.12;99580.25;5019405;28;20069;-53
2023/03/11 06:54:04;;;;;;;6.20;2.67;;;;;;;-0.60;69.67;99580.38;5021320;28;20073;-54
2023/03/11 06:56:30;;;;;;;5.55;1.83;;;;;;;-0.58;69.47;99579.59;5022181;28;20356;-51
2023/03/11 06:58:57;;;;;;;4.95;4.53;;;;;;;-0.56;69.42;99575.44;5016876;28;20072;-51
2023/03/11 07:01:24;;;;;;;7.43;2.92;;;;;;;-0.52;69.34;99574.75;5016552;28;20049;-55
2023/03/11 07:03:51;;;;;;;3.78;1.10;;;;;;;-0.49;69.44;99584.16;5030974;28;20146;-55
2023/03/11 07:06:21;;;;;;;5.20;2.65;;;;;;;-0.46;69.43;99583.38;5018011;28;20041;-54
2023/03/11 07:08:50;;;;;;;4.20;2.63;;;;;;;-0.44;69.77;99587.72;5018737;28;20077;-54
2023/03/11 07:13:55;;;;;;;3.03;1.35;;;;;;;-0.39;69.29;99590.44;5017376;27;20959;-54
2023/03/11 07:16:25;;;;;;;6.80;1.67;;;;;;;-0.36;69.38;99584.56;5004441;28;20627;-51
2023/03/11 07:18:53;;;;;;;6.15;2.03;;;;;;;-0.31;69.49;99594.09;5029865;28;20505;-54
2023/03/11 07:21:22;;;;;;;4.35;2.42;;;;;;;-0.26;69.15;99597.66;5031065;28;20503;-52
2023/03/11 07:23:53;;;;;;;2.15;1.10;;;;;;;-0.22;69.31;99596.09;5026964;28;20103;-54
2023/03/11 07:26:21;;;;;;;5.85;1.40;;;;;;;-0.17;69.36;99596.25;5032292;28;20568;-51
2023/03/11 07:28:49;;;;;;;3.10;1.48;;;;;;;-0.11;69.72;99586.25;5029762;28;20045;-53
2023/03/11 07:31:19;;;;;;;6.32;2.17;;;;;;;-0.06;68.77;99584.75;5026515;28;20130;-54
2023/03/11 07:33:46;;;;;;;2.92;2.42;;;;;;;-0.03;68.98;99586.53;5057441;28;20053;-55
2023/03/11 07:36:17;;;;;;;2.08;1.17;;;;;;;-0.01;69.54;99578.13;5028039;28;20123;-53
2023/03/11 07:38:45;;;;;;;2.83;1.15;;;;;;;-0.03;69.54;99577.19;5022014;28;20402;-53
2023/03/11 07:41:12;;;;;;;4.40;2.97;;;;;;;0.01;69.06;99590.03;5029132;28;20076;-53
2023/03/11 07:43:41;;;;;;;4.82;2.00;;;;;;;0.03;69.26;99591.78;5029033;28;20053;-54
2023/03/11 07:48:45;;;;;;;3.80;2.80;;;;;;;0.10;69.54;99581.00;5058139;27;21953;-54
2023/03/11 07:51:15;;;;;;;5.50;1.30;;;;;;;0.17;69.02;99586.31;5009981;28;20498;-55
2023/03/11 07:53:43;;;;;;;5.57;3.17;;;;;;;0.21;69.49;99583.88;5011381;28;20049;-52
2023/03/11 07:56:11;;;;;;;3.50;2.83;;;;;;;0.28;69.60;99590.06;5039193;28;20092;-53
2023/03/11 07:58:39;;;;;;;3.78;2.45;;;;;;;0.35;69.37;99580.91;5005062;28;22065;-52
2023/03/11 08:01:07;;;;;;;4.05;3.10;;;;;;;0.42;68.75;99587.94;5004236;28;20485;-54
2023/03/11 08:03:35;;;;;;;5.40;2.70;;;;;;;0.54;68.86;99595.06;5007841;28;20053;-53
2023/03/11 08:06:03;;;;;;;5.15;2.58;;;;;;;0.66;69.70;99602.25;5013864;28;20050;-55
2023/03/11 08:08:29;;;;;;;5.88;2.90;;;;;;;0.74;68.68;99600.78;5010726;28;20162;-52
2023/03/11 08:10:56;;;;;;;6.38;3.38;;;;;;;0.85;69.54;99608.75;5010732;28;20152;-55
2023/03/11 08:13:22;;;;;;;8.98;3.63;;;;;;;1.00;69.54;99612.56;5006800;28;20046;-54
2023/03/11 08:15:49;;;;;;;5.22;3.38;;;;;;;1.18;69.29;99625.00;5008873;28;20096;-52
2023/03/11 08:18:15;;;;;;;4.90;1.77;;;;;;;1.40;69.01;99623.94;5007943;28;20442;-53
2023/03/11 08:20:44;;;;;;;5.63;3.63;;;;;;;1.77;69.23;99620.63;5009307;28;20058;-54
2023/03/11 08:23:11;;;;;;;6.70;4.00;;;;;;;2.68;68.97;99616.00;5002009;28;20074;-57
2023/03/11 08:25:39;;;;;;;9.98;3.38;;;;;;;3.66;68.99;99604.28;5002586;28;20441;-53
2023/03/11 08:28:07;;;;;;;8.27;3.88;;;;;;;4.37;68.02;99585.00;5009574;28;20137;-55
2023/03/11 08:30:34;;;;;;;5.30;3.25;;;;;;;4.82;66.21;99595.00;5036817;28;20085;-55
2023/03/11 08:33:01;;;;;;;4.05;3.05;;;;;;;4.88;65.04;99592.53;5011293;28;20119;-56
2023/03/11 08:35:28;;;;;;;4.57;3.80;;;;;;;4.69;64.59;99590.56;5020555;28;20057;-55
2023/03/11 08:37:54;;;;;;;4.63;3.30;;;;;;;4.48;65.05;99579.13;5009576;28;20041;-57
2023/03/11 08:40:21;;;;;;;4.70;3.10;;;;;;;4.40;65.29;99586.72;5012781;28;20041;-54
2023/03/11 08:42:48;;;;;;;6.85;4.55;;;;;;;4.54;65.08;99586.94;5018440;28;20058;-57
2023/03/11 08:45:15;;;;;;;3.55;2.80;;;;;;;4.74;64.53;99591.47;5011637;28;20086;-57
2023/03/11 08:47:41;;;;;;;5.32;2.40;;;;;;;4.75;64.42;99588.06;5007974;28;20583;-56
2023/03/11 08:50:13;;;;;;;2.75;2.45;;;;;;;4.59;63.23;99590.41;5010411;28;20077;-54
2023/03/11 08:52:40;;;;;;;2.83;2.17;;;;;;;4.33;61.24;99593.44;5011269;28;20162;-56
2023/03/11 08:55:10;;;;;;;4.45;2.83;;;;;;;4.25;62.87;99595.03;5013013;28;20045;-56
2023/03/11 08:57:37;;;;;;;5.63;2.70;;;;;;;4.14;62.91;99591.44;5018202;28;20049;-55
2023/03/11 09:00:07;;;;;;;2.58;2.35;;;;;;;4.05;62.14;99597.28;5007199;28;20529;-58
2023/03/11 09:02:34;;;;;;;2.33;1.85;;;;;;;4.11;62.98;99598.25;5003671;28;20069;-56
2023/03/11 09:05:00;;;;;;;1.63;1.52;;;;;;;4.24;62.16;99594.19;4997604;28;20053;-56
2023/03/11 09:07:27;;;;;;;3.92;2.08;;;;;;;4.39;61.45;99596.97;5002096;28;20050;-57
2023/03/11 09:09:54;;;;;;;2.40;1.80;;;;;;;4.58;61.22;99609.22;4996348;28;20173;-55
2023/03/11 09:12:20;;;;;;;3.47;2.80;;;;;;;4.74;61.08;99602.63;5002290;28;20108;-56
2023/03/11 09:14:47;;;;;;;3.92;2.63;;;;;;;4.83;61.30;99601.84;4998597;28;20105;-56
2023/03/11 09:17:16;;;;;;;4.32;2.55;;;;;;;4.91;60.52;99598.53;4994558;28;20140;-56
2023/03/11 09:19:42;;;;;;;3.55;3.25;;;;;;;4.96;61.09;99599.47;4994448;28;20054;-56
2023/03/11 09:22:09;;;;;;;5.38;2.20;;;;;;;5.09;60.37;99593.63;5002659;28;20132;-58
2023/03/11 09:24:36;;;;;;;5.65;3.15;;;;;;;5.14;59.85;99594.53;4999296;28;20514;-57
2023/03/11 09:27:04;;;;;;;3.30;3.00;;;;;;;5.15;60.51;99590.28;5000653;28;20078;-53
2023/03/11 09:29:31;;;;;;;3.15;2.85;;;;;;;5.16;59.03;99592.00;5002609;28;20041;-56
2023/03/11 09:31:59;;;;;;;3.55;3.25;;;;;;;5.38;59.73;99595.66;4997686;28;20571;-58
2023/03/11 09:34:25;;;;;;;5.13;2.72;;;;;;;5.69;58.68;99595.16;5005109;28;20886;-57
2023/03/11 09:36:52;;;;;;;2.28;2.13;;;;;;;6.11;57.81;99600.69;5010445;28;20129;-55
2023/03/11 09:39:19;;;;;;;3.92;2.35;;;;;;;6.38;57.58;99583.75;5000394;28;20151;-53
2023/03/11 09:41:53;;;;;;;3.75;2.15;;;;;;;6.41;56.77;99594.06;5021268;28;20096;-58
2023/03/11 09:44:44;;;;;;;5.93;2.38;;;;;;;6.62;55.58;99592.47;5007536;28;20149;-57
2023/03/11 09:58:00;;;;;;;2.08;1.00;;;;;;;8.14;54.13;99580.03;5066332;27;20394;-56
2023/03/11 10:00:27;;;;;;;4.50;1.33;;;;;;;8.21;52.42;99576.59;5028264;28;20524;-54
2023/03/11 10:02:54;;;;;;;3.55;1.42;;;;;;;8.32;53.03;99579.16;5038569;28;20143;-54
2023/03/11 10:05:26;;;;;;;3.08;1.25;;;;;;;8.54;52.73;99579.19;5037490;28;20760;-55
2023/03/11 10:10:40;;;;;;;2.13;1.35;;;;;;;9.21;51.30;99577.22;5021635;27;20749;-53
2023/03/11 10:13:17;;;;;;;6.70;1.20;;;;;;;9.76;52.00;99567.41;4992220;28;20079;-55
2023/03/11 10:18:48;;;;;;;3.03;1.58;;;;;;;10.18;50.95;99571.41;5038985;28;20938;-53
2023/03/11 10:24:41;;;;;;;6.70;2.78;;;;;;;11.17;50.35;99564.31;5018811;27;20421;-56
2023/03/11 10:27:14;;;;;;;5.45;3.65;;;;;;;11.56;47.92;99566.38;5014207;28;20138;-55
2023/03/11 10:30:06;;;;;;;6.80;2.13;;;;;;;11.68;48.35;99574.84;5016885;28;20486;-57
2023/03/11 10:32:41;;;;;;;4.72;2.67;;;;;;;11.62;47.25;99569.78;4992758;28;20046;-52
2023/03/11 10:37:59;;;;;;;2.05;0.95;;;;;;;11.55;46.46;99569.84;5034030;27;20406;-55
2023/03/11 10:40:30;;;;;;;6.38;1.05;;;;;;;11.52;47.63;99575.09;5020905;28;20117;-55
2023/03/11 10:43:02;;;;;;;4.32;3.88;;;;;;;11.66;48.58;99571.44;5021486;28;20061;-56
2023/03/11 10:45:35;;;;;;;3.35;1.67;;;;;;;11.86;47.09;99567.69;5016084;28;20112;-55
2023/03/11 10:48:07;;;;;;;3.60;0.90;;;;;;;11.96;45.68;99569.25;5020145;28;20157;-55
2023/03/11 10:50:34;;;;;;;4.43;1.13;;;;;;;12.16;46.71;99561.16;5012572;28;20073;-58
2023/03/11 10:53:06;;;;;;;2.95;0.68;;;;;;;12.28;46.27;99559.22;5017666;28;20076;-55
2023/03/11 10:55:32;;;;;;;4.88;2.42;;;;;;;12.34;46.11;99552.19;5012777;28;20049;-49
2023/03/11 10:58:12;;;;;;;3.67;1.88;;;;;;;12.01;44.23;99546.69;5017206;28;20129;-53
2023/03/11 11:00:38;;;;;;;2.53;0.57;;;;;;;11.71;44.23;99554.06;5010704;28;20072;-56
2023/03/11 11:03:15;;;;;;;5.30;0.65;;;;;;;11.42;45.31;99563.16;5014939;28;20045;-56
2023/03/11 11:05:42;;;;;;;2.53;0.77;;;;;;;11.32;46.12;99565.84;4999233;28;20065;-56
2023/03/11 11:08:14;;;;;;;4.97;0.95;;;;;;;11.16;44.79;99561.75;5009486;28;20139;-55
2023/03/11 11:10:51;;;;;;;7.25;0.88;;;;;;;11.07;46.28;99578.28;5011404;28;20060;-52
2023/03/11 11:13:20;;;;;;;1.55;0.90;;;;;;;11.02;46.42;99577.47;5016662;28;20045;-56
2023/03/11 11:15:55;;;;;;;3.63;0.60;;;;;;;11.02;46.52;99561.94;5014336;28;20077;-57
2023/03/11 11:23:45;;;;;;;3.25;2.60;;;;;;;10.72;46.30;99559.69;5011520;27;21244;-55
2023/03/11 11:31:47;;;;;;;1.27;1.05;;;;;;;9.65;46.87;99545.94;5057780;27;20408;-55
2023/03/11 11:37:03;;;;;;;7.93;1.05;;;;;;;9.17;47.77;99549.69;5054984;27;20398;-55
2023/03/11 11:39:43;;;;;;;4.10;1.08;;;;;;;8.94;47.76;99560.97;5018371;28;20484;-53
2023/03/11 11:42:12;;;;;;;2.50;1.10;;;;;;;8.80;48.49;99555.00;5013852;28;20046;-55
2023/03/11 11:44:41;;;;;;;2.38;0.60;;;;;;;8.84;48.38;99554.09;5007236;28;20132;-52
2023/03/11 11:47:28;;;;;;;3.25;1.50;;;;;;;8.78;48.23;99564.47;5005973;28;21753;-55
2023/03/11 11:49:59;;;;;;;3.72;0.80;;;;;;;8.66;48.05;99558.50;5005957;28;20767;-55
2023/03/11 11:52:31;;;;;;;1.73;0.68;;;;;;;8.55;48.33;99549.91;5009596;28;20417;-53
2023/03/11 11:55:03;;;;;;;6.57;2.30;;;;;;;8.60;49.72;99551.63;5018467;28;20591;-56
2023/03/11 11:57:30;;;;;;;3.30;1.35;;;;;;;8.71;49.09;99549.00;5033338;28;20076;-53
2023/03/11 11:59:57;;;;;;;2.78;0.63;;;;;;;8.72;48.71;99557.63;5030156;28;20584;-54
2023/03/11 12:05:15;;;;;;;1.13;0.98;;;;;;;8.72;49.22;99550.69;5029579;27;20411;-53
2023/03/11 12:07:56;;;;;;;3.22;1.88;;;;;;;8.88;49.68;99540.31;5042001;28;20385;-57
2023/03/11 12:16:30;;;;;;;2.22;2.03;;;;;;;8.69;48.84;99548.16;5067036;27;20417;-54
2023/03/11 12:27:18;;;;;;;4.05;0.68;;;;;;;8.72;49.48;99516.31;5071057;27;20398;-52
2023/03/11 12:29:51;;;;;;;1.70;0.50;;;;;;;8.67;49.26;99513.72;5015523;28;20045;-54
2023/03/11 12:32:28;;;;;;;5.30;0.70;;;;;;;8.67;49.02;99521.47;5029704;28;20042;-57
2023/03/11 12:35:00;;;;;;;2.25;0.70;;;;;;;8.64;49.86;99513.72;5023026;28;20057;-54
2023/03/11 12:37:27;;;;;;;3.50;0.70;;;;;;;8.70;49.55;99511.13;5027644;28;20147;-54